sensor_id;sensor_type;location;lat;lon;timestamp;temperature;humidity
27384;DHT22;14851;51.166;4.760;2024-01-11T00:01:50;-3.80;99.90
27384;DHT22;14851;51.166;4.760;2024-01-11T00:04:16;-3.80;99.90
27384;DHT22;14851;51.166;4.760;2024-01-11T00:06:45;-3.80;99.90
27384;DHT22;14851;51.166;4.760;2024-01-11T00:09:11;-3.70;99.90
27384;DHT22;14851;51.166;4.760;2024-01-11T00:11:37;-3.80;99.90
27384;DHT22;14851;51.166;4.760;2024-01-11T00:14:04;-3.70;99.90
27384;DHT22;14851;51.166;4.760;2024-01-11T00:16:30;-3.70;99.90
27384;DHT22;14851;51.166;4.760;2024-01-11T00:18:56;-3.70;99.90
27384;DHT22;14851;51.166;4.760;2024-01-11T00:21:22;-3.70;99.90
27384;DHT22;14851;51.166;4.760;2024-01-11T00:23:49;-3.70;99.90
27384;DHT22;14851;51.166;4.760;2024-01-11T00:26:16;-3.70;99.90
27384;DHT22;14851;51.166;4.760;2024-01-11T00:28:45;-3.70;99.90
27384;DHT22;14851;51.166;4.760;2024-01-11T00:31:11;-3.70;99.90
27384;DHT22;14851;51.166;4.760;2024-01-11T00:33:37;-3.70;99.90
27384;DHT22;14851;51.166;4.760;2024-01-11T00:36:03;-3.70;99.90
27384;DHT22;14851;51.166;4.760;2024-01-11T00:38:30;-3.70;99.90
27384;DHT22;14851;51.166;4.760;2024-01-11T00:40:56;-3.70;99.90
27384;DHT22;14851;51.166;4.760;2024-01-11T00:43:22;-3.70;99.90
27384;DHT22;14851;51.166;4.760;2024-01-11T00:45:49;-3.70;99.90
27384;DHT22;14851;51.166;4.760;2024-01-11T00:48:15;-3.70;99.90
27384;DHT22;14851;51.166;4.760;2024-01-11T00:50:40;-3.70;99.90
27384;DHT22;14851;51.166;4.760;2024-01-11T00:53:09;-3.70;99.90
27384;DHT22;14851;51.166;4.760;2024-01-11T00:55:37;-3.70;99.90
27384;DHT22;14851;51.166;4.760;2024-01-11T00:58:03;-3.70;99.90
27384;DHT22;14851;51.166;4.760;2024-01-11T01:00:32;-3.70;99.90
27384;DHT22;14851;51.166;4.760;2024-01-11T01:02:58;-3.70;99.90
27384;DHT22;14851;51.166;4.760;2024-01-11T01:05:24;-3.70;99.90
27384;DHT22;14851;51.166;4.760;2024-01-11T01:07:53;-3.80;99.90
27384;DHT22;14851;51.166;4.760;2024-01-11T01:10:21;-3.80;99.90
27384;DHT22;14851;51.166;4.760;2024-01-11T01:12:47;-3.80;99.90
27384;DHT22;14851;51.166;4.760;2024-01-11T01:15:18;-3.80;99.90
27384;DHT22;14851;51.166;4.760;2024-01-11T01:17:46;-3.80;99.90
27384;DHT22;14851;51.166;4.760;2024-01-11T01:20:15;-3.80;99.90
27384;DHT22;14851;51.166;4.760;2024-01-11T01:22:41;-3.90;99.90
27384;DHT22;14851;51.166;4.760;2024-01-11T01:25:07;-3.90;99.90
27384;DHT22;14851;51.166;4.760;2024-01-11T01:27:34;-3.90;99.90
27384;DHT22;14851;51.166;4.760;2024-01-11T01:30:00;-3.90;99.90
27384;DHT22;14851;51.166;4.760;2024-01-11T01:32:30;-3.90;99.90
27384;DHT22;14851;51.166;4.760;2024-01-11T01:34:58;-3.90;99.90
27384;DHT22;14851;51.166;4.760;2024-01-11T01:37:24;-3.90;99.90
27384;DHT22;14851;51.166;4.760;2024-01-11T01:39:53;-3.90;99.90
27384;DHT22;14851;51.166;4.760;2024-01-11T01:42:20;-4.00;99.90
27384;DHT22;14851;51.166;4.760;2024-01-11T01:44:46;-4.00;99.90
27384;DHT22;14851;51.166;4.760;2024-01-11T01:47:13;-4.00;99.90
27384;DHT22;14851;51.166;4.760;2024-01-11T01:49:43;-4.00;99.90
27384;DHT22;14851;51.166;4.760;2024-01-11T01:52:11;-4.00;99.90
27384;DHT22;14851;51.166;4.760;2024-01-11T01:54:40;-4.00;99.90
27384;DHT22;14851;51.166;4.760;2024-01-11T01:57:07;-4.10;99.90
27384;DHT22;14851;51.166;4.760;2024-01-11T01:59:36;-4.10;99.90
27384;DHT22;14851;51.166;4.760;2024-01-11T02:02:05;-4.10;99.90
27384;DHT22;14851;51.166;4.760;2024-01-11T02:04:32;-4.10;99.90
27384;DHT22;14851;51.166;4.760;2024-01-11T02:07:04;-4.10;99.90
27384;DHT22;14851;51.166;4.760;2024-01-11T02:09:30;-4.10;99.90
27384;DHT22;14851;51.166;4.760;2024-01-11T02:11:56;-4.10;99.90
27384;DHT22;14851;51.166;4.760;2024-01-11T02:14:24;-4.20;99.90
27384;DHT22;14851;51.166;4.760;2024-01-11T02:16:50;-4.20;99.90
27384;DHT22;14851;51.166;4.760;2024-01-11T02:19:19;-4.20;99.90
27384;DHT22;14851;51.166;4.760;2024-01-11T02:21:46;-4.20;99.90
27384;DHT22;14851;51.166;4.760;2024-01-11T02:24:14;-4.20;99.90
27384;DHT22;14851;51.166;4.760;2024-01-11T02:27:00;-4.20;99.90
27384;DHT22;14851;51.166;4.760;2024-01-11T02:29:28;-4.20;99.90
27384;DHT22;14851;51.166;4.760;2024-01-11T02:31:55;-4.30;99.90
27384;DHT22;14851;51.166;4.760;2024-01-11T02:34:24;-4.30;99.90
27384;DHT22;14851;51.166;4.760;2024-01-11T02:36:54;-4.30;99.90
27384;DHT22;14851;51.166;4.760;2024-01-11T02:39:27;-4.30;99.90
27384;DHT22;14851;51.166;4.760;2024-01-11T02:41:56;-4.30;99.90
27384;DHT22;14851;51.166;4.760;2024-01-11T02:44:25;-4.30;99.90
27384;DHT22;14851;51.166;4.760;2024-01-11T02:46:56;-4.30;99.90
27384;DHT22;14851;51.166;4.760;2024-01-11T02:49:22;-4.30;99.90
27384;DHT22;14851;51.166;4.760;2024-01-11T02:51:48;-4.30;99.90
27384;DHT22;14851;51.166;4.760;2024-01-11T02:54:14;-4.30;99.90
27384;DHT22;14851;51.166;4.760;2024-01-11T02:56:43;-4.30;99.90
27384;DHT22;14851;51.166;4.760;2024-01-11T02:59:09;-4.30;99.90
27384;DHT22;14851;51.166;4.760;2024-01-11T03:01:37;-4.30;99.90
27384;DHT22;14851;51.166;4.760;2024-01-11T03:04:05;-4.30;99.90
27384;DHT22;14851;51.166;4.760;2024-01-11T03:06:31;-4.30;99.90
27384;DHT22;14851;51.166;4.760;2024-01-11T03:08:59;-4.30;99.90
27384;DHT22;14851;51.166;4.760;2024-01-11T03:11:26;-4.40;99.90
27384;DHT22;14851;51.166;4.760;2024-01-11T03:13:54;-4.30;99.90
27384;DHT22;14851;51.166;4.760;2024-01-11T03:16:23;-4.40;99.90
27384;DHT22;14851;51.166;4.760;2024-01-11T03:18:50;-4.40;99.90
27384;DHT22;14851;51.166;4.760;2024-01-11T03:21:19;-4.50;99.90
27384;DHT22;14851;51.166;4.760;2024-01-11T03:23:45;-4.50;99.90
27384;DHT22;14851;51.166;4.760;2024-01-11T03:26:17;-4.40;99.90
27384;DHT22;14851;51.166;4.760;2024-01-11T03:28:46;-4.50;99.90
27384;DHT22;14851;51.166;4.760;2024-01-11T03:31:12;-4.50;99.90
27384;DHT22;14851;51.166;4.760;2024-01-11T03:33:41;-4.50;99.90
27384;DHT22;14851;51.166;4.760;2024-01-11T03:36:11;-4.50;99.90
27384;DHT22;14851;51.166;4.760;2024-01-11T03:38:37;-4.50;99.90
27384;DHT22;14851;51.166;4.760;2024-01-11T03:41:12;-4.50;99.90
27384;DHT22;14851;51.166;4.760;2024-01-11T03:43:38;-4.50;99.90
27384;DHT22;14851;51.166;4.760;2024-01-11T03:46:04;-4.50;99.90
27384;DHT22;14851;51.166;4.760;2024-01-11T03:48:34;-4.50;99.90
27384;DHT22;14851;51.166;4.760;2024-01-11T03:51:01;-4.50;99.90
27384;DHT22;14851;51.166;4.760;2024-01-11T03:53:28;-4.60;99.90
27384;DHT22;14851;51.166;4.760;2024-01-11T03:55:54;-4.60;99.90
27384;DHT22;14851;51.166;4.760;2024-01-11T03:58:21;-4.60;99.90
27384;DHT22;14851;51.166;4.760;2024-01-11T04:00:49;-4.60;99.90
27384;DHT22;14851;51.166;4.760;2024-01-11T04:03:15;-4.60;99.90
27384;DHT22;14851;51.166;4.760;2024-01-11T04:05:44;-4.60;99.90
27384;DHT22;14851;51.166;4.760;2024-01-11T04:08:13;-4.60;99.90
27384;DHT22;14851;51.166;4.760;2024-01-11T04:10:42;-4.60;99.90
27384;DHT22;14851;51.166;4.760;2024-01-11T04:13:10;-4.60;99.90
27384;DHT22;14851;51.166;4.760;2024-01-11T04:15:37;-4.60;99.90
27384;DHT22;14851;51.166;4.760;2024-01-11T04:18:03;-4.60;99.90
27384;DHT22;14851;51.166;4.760;2024-01-11T04:20:29;-4.60;99.90
27384;DHT22;14851;51.166;4.760;2024-01-11T04:22:58;-4.60;99.90
27384;DHT22;14851;51.166;4.760;2024-01-11T04:25:24;-4.60;99.90
27384;DHT22;14851;51.166;4.760;2024-01-11T04:27:53;-4.60;99.90
27384;DHT22;14851;51.166;4.760;2024-01-11T04:30:19;-4.60;99.90
27384;DHT22;14851;51.166;4.760;2024-01-11T04:32:45;-4.60;99.90
27384;DHT22;14851;51.166;4.760;2024-01-11T04:35:15;-4.60;99.90
27384;DHT22;14851;51.166;4.760;2024-01-11T04:37:43;-4.50;99.90
27384;DHT22;14851;51.166;4.760;2024-01-11T04:40:10;-4.40;99.90
27384;DHT22;14851;51.166;4.760;2024-01-11T04:42:36;-4.30;99.90
27384;DHT22;14851;51.166;4.760;2024-01-11T04:45:03;-4.20;99.90
27384;DHT22;14851;51.166;4.760;2024-01-11T04:47:30;-4.20;99.90
27384;DHT22;14851;51.166;4.760;2024-01-11T04:49:58;-4.20;99.90
27384;DHT22;14851;51.166;4.760;2024-01-11T04:52:25;-4.20;99.90
27384;DHT22;14851;51.166;4.760;2024-01-11T04:54:55;-4.20;99.90
27384;DHT22;14851;51.166;4.760;2024-01-11T04:57:23;-4.20;99.90
27384;DHT22;14851;51.166;4.760;2024-01-11T04:59:51;-4.20;99.90
27384;DHT22;14851;51.166;4.760;2024-01-11T05:02:20;-4.20;99.90
27384;DHT22;14851;51.166;4.760;2024-01-11T05:04:48;-4.30;99.90
27384;DHT22;14851;51.166;4.760;2024-01-11T05:07:14;-4.30;99.90
27384;DHT22;14851;51.166;4.760;2024-01-11T05:09:45;-4.40;99.90
27384;DHT22;14851;51.166;4.760;2024-01-11T05:12:12;-4.40;99.90
27384;DHT22;14851;51.166;4.760;2024-01-11T05:14:38;-4.50;99.90
27384;DHT22;14851;51.166;4.760;2024-01-11T05:17:04;-4.50;99.90
27384;DHT22;14851;51.166;4.760;2024-01-11T05:19:34;-4.50;99.90
27384;DHT22;14851;51.166;4.760;2024-01-11T05:22:02;-4.50;99.90
27384;DHT22;14851;51.166;4.760;2024-01-11T05:24:31;-4.50;99.90
27384;DHT22;14851;51.166;4.760;2024-01-11T05:26:57;-4.50;99.90
27384;DHT22;14851;51.166;4.760;2024-01-11T05:29:25;-4.50;99.90
27384;DHT22;14851;51.166;4.760;2024-01-11T05:31:51;-4.60;99.90
27384;DHT22;14851;51.166;4.760;2024-01-11T05:34:17;-4.60;99.90
27384;DHT22;14851;51.166;4.760;2024-01-11T05:36:47;-4.50;99.90
27384;DHT22;14851;51.166;4.760;2024-01-11T05:39:13;-4.50;99.90
27384;DHT22;14851;51.166;4.760;2024-01-11T05:41:39;-4.50;99.90
27384;DHT22;14851;51.166;4.760;2024-01-11T05:44:09;-4.50;99.90
27384;DHT22;14851;51.166;4.760;2024-01-11T05:46:37;-4.50;99.90
27384;DHT22;14851;51.166;4.760;2024-01-11T05:49:04;-4.60;99.90
27384;DHT22;14851;51.166;4.760;2024-01-11T05:51:34;-4.60;99.90
27384;DHT22;14851;51.166;4.760;2024-01-11T05:54:03;-4.60;99.90
27384;DHT22;14851;51.166;4.760;2024-01-11T05:56:32;-4.70;99.90
27384;DHT22;14851;51.166;4.760;2024-01-11T05:58:58;-4.70;99.90
27384;DHT22;14851;51.166;4.760;2024-01-11T06:01:26;-4.80;99.90
27384;DHT22;14851;51.166;4.760;2024-01-11T06:03:53;-4.80;99.90
27384;DHT22;14851;51.166;4.760;2024-01-11T06:06:19;-4.70;99.90
27384;DHT22;14851;51.166;4.760;2024-01-11T06:08:47;-4.60;99.90
27384;DHT22;14851;51.166;4.760;2024-01-11T06:11:14;-4.60;99.90
27384;DHT22;14851;51.166;4.760;2024-01-11T06:13:45;-4.60;99.90
27384;DHT22;14851;51.166;4.760;2024-01-11T06:16:11;-4.60;99.90
27384;DHT22;14851;51.166;4.760;2024-01-11T06:18:37;-4.60;99.90
27384;DHT22;14851;51.166;4.760;2024-01-11T06:21:06;-4.60;99.90
27384;DHT22;14851;51.166;4.760;2024-01-11T06:23:32;-4.60;99.90
27384;DHT22;14851;51.166;4.760;2024-01-11T06:25:59;-4.60;99.90
27384;DHT22;14851;51.166;4.760;2024-01-11T06:28:26;-4.70;99.90
27384;DHT22;14851;51.166;4.760;2024-01-11T06:30:54;-4.70;99.90
27384;DHT22;14851;51.166;4.760;2024-01-11T06:33:20;-4.80;99.90
27384;DHT22;14851;51.166;4.760;2024-01-11T06:35:46;-4.90;99.90
27384;DHT22;14851;51.166;4.760;2024-01-11T06:38:12;-4.90;99.90
27384;DHT22;14851;51.166;4.760;2024-01-11T06:40:41;-4.90;99.90
27384;DHT22;14851;51.166;4.760;2024-01-11T06:43:09;-5.00;99.90
27384;DHT22;14851;51.166;4.760;2024-01-11T06:45:35;-5.00;99.90
27384;DHT22;14851;51.166;4.760;2024-01-11T06:48:01;-5.10;99.90
27384;DHT22;14851;51.166;4.760;2024-01-11T06:50:32;-5.20;99.90
27384;DHT22;14851;51.166;4.760;2024-01-11T06:53:00;-5.30;99.90
27384;DHT22;14851;51.166;4.760;2024-01-11T06:55:26;-5.30;99.90
27384;DHT22;14851;51.166;4.760;2024-01-11T06:57:52;-5.40;99.90
27384;DHT22;14851;51.166;4.760;2024-01-11T07:00:19;-5.40;99.90
27384;DHT22;14851;51.166;4.760;2024-01-11T07:02:45;-5.20;99.90
27384;DHT22;14851;51.166;4.760;2024-01-11T07:05:11;-5.20;99.90
27384;DHT22;14851;51.166;4.760;2024-01-11T07:07:38;-5.10;99.90
27384;DHT22;14851;51.166;4.760;2024-01-11T07:10:05;-5.10;99.90
27384;DHT22;14851;51.166;4.760;2024-01-11T07:12:32;-5.10;99.90
27384;DHT22;14851;51.166;4.760;2024-01-11T07:14:59;-5.10;99.90
27384;DHT22;14851;51.166;4.760;2024-01-11T07:17:25;-5.10;99.90
27384;DHT22;14851;51.166;4.760;2024-01-11T07:19:52;-5.10;99.90
27384;DHT22;14851;51.166;4.760;2024-01-11T07:22:18;-5.10;99.90
27384;DHT22;14851;51.166;4.760;2024-01-11T07:24:44;-5.10;99.90
27384;DHT22;14851;51.166;4.760;2024-01-11T07:27:11;-5.20;99.90
27384;DHT22;14851;51.166;4.760;2024-01-11T07:29:37;-5.20;99.90
27384;DHT22;14851;51.166;4.760;2024-01-11T07:32:04;-5.30;99.90
27384;DHT22;14851;51.166;4.760;2024-01-11T07:34:30;-5.30;99.90
27384;DHT22;14851;51.166;4.760;2024-01-11T07:36:56;-5.40;99.90
27384;DHT22;14851;51.166;4.760;2024-01-11T07:39:23;-5.50;99.90
27384;DHT22;14851;51.166;4.760;2024-01-11T07:41:50;-5.60;99.90
27384;DHT22;14851;51.166;4.760;2024-01-11T07:44:17;-5.60;99.90
27384;DHT22;14851;51.166;4.760;2024-01-11T07:46:43;-5.70;99.90
27384;DHT22;14851;51.166;4.760;2024-01-11T07:49:09;-5.60;99.90
27384;DHT22;14851;51.166;4.760;2024-01-11T07:51:36;-5.50;99.90
27384;DHT22;14851;51.166;4.760;2024-01-11T07:54:03;-5.40;99.90
27384;DHT22;14851;51.166;4.760;2024-01-11T07:56:30;-5.30;99.90
27384;DHT22;14851;51.166;4.760;2024-01-11T07:58:57;-5.30;99.90
27384;DHT22;14851;51.166;4.760;2024-01-11T08:01:23;-5.30;99.90
27384;DHT22;14851;51.166;4.760;2024-01-11T08:03:49;-5.40;99.90
27384;DHT22;14851;51.166;4.760;2024-01-11T08:06:18;-5.40;99.90
27384;DHT22;14851;51.166;4.760;2024-01-11T08:08:44;-5.40;99.90
27384;DHT22;14851;51.166;4.760;2024-01-11T08:11:17;-5.40;99.90
27384;DHT22;14851;51.166;4.760;2024-01-11T08:13:44;-5.40;99.90
27384;DHT22;14851;51.166;4.760;2024-01-11T08:16:18;-5.40;99.90
27384;DHT22;14851;51.166;4.760;2024-01-11T08:18:44;-5.40;99.90
27384;DHT22;14851;51.166;4.760;2024-01-11T08:21:11;-5.30;99.90
27384;DHT22;14851;51.166;4.760;2024-01-11T08:23:41;-5.30;99.90
27384;DHT22;14851;51.166;4.760;2024-01-11T08:26:14;-5.30;99.90
27384;DHT22;14851;51.166;4.760;2024-01-11T08:28:41;-5.30;99.90
27384;DHT22;14851;51.166;4.760;2024-01-11T08:31:07;-5.30;99.90
27384;DHT22;14851;51.166;4.760;2024-01-11T08:33:34;-5.30;99.90
27384;DHT22;14851;51.166;4.760;2024-01-11T08:36:04;-5.30;99.90
27384;DHT22;14851;51.166;4.760;2024-01-11T08:38:30;-5.30;99.90
27384;DHT22;14851;51.166;4.760;2024-01-11T08:40:59;-5.30;99.90
27384;DHT22;14851;51.166;4.760;2024-01-11T08:43:26;-5.30;99.90
27384;DHT22;14851;51.166;4.760;2024-01-11T08:45:53;-5.10;99.90
27384;DHT22;14851;51.166;4.760;2024-01-11T08:48:19;-5.00;99.90
27384;DHT22;14851;51.166;4.760;2024-01-11T08:50:49;-5.00;99.90
27384;DHT22;14851;51.166;4.760;2024-01-11T08:53:15;-4.90;99.90
27384;DHT22;14851;51.166;4.760;2024-01-11T08:55:42;-4.90;99.90
27384;DHT22;14851;51.166;4.760;2024-01-11T08:58:09;-4.80;99.90
27384;DHT22;14851;51.166;4.760;2024-01-11T09:00:37;-4.80;99.90
27384;DHT22;14851;51.166;4.760;2024-01-11T09:03:04;-4.80;99.90
27384;DHT22;14851;51.166;4.760;2024-01-11T09:05:32;-4.80;99.90
27384;DHT22;14851;51.166;4.760;2024-01-11T09:08:00;-4.80;99.90
27384;DHT22;14851;51.166;4.760;2024-01-11T09:10:27;-4.70;99.90
27384;DHT22;14851;51.166;4.760;2024-01-11T09:12:58;-4.70;99.90
27384;DHT22;14851;51.166;4.760;2024-01-11T09:15:25;-4.70;99.90
27384;DHT22;14851;51.166;4.760;2024-01-11T09:17:53;-4.60;99.90
27384;DHT22;14851;51.166;4.760;2024-01-11T09:20:20;-4.60;99.90
27384;DHT22;14851;51.166;4.760;2024-01-11T09:22:48;-4.60;99.90
27384;DHT22;14851;51.166;4.760;2024-01-11T09:25:15;-4.60;99.90
27384;DHT22;14851;51.166;4.760;2024-01-11T09:27:41;-4.60;99.90
27384;DHT22;14851;51.166;4.760;2024-01-11T09:30:08;-4.50;99.90
27384;DHT22;14851;51.166;4.760;2024-01-11T09:32:37;-4.50;99.90
27384;DHT22;14851;51.166;4.760;2024-01-11T09:35:04;-4.40;99.90
27384;DHT22;14851;51.166;4.760;2024-01-11T09:37:30;-4.40;99.90
27384;DHT22;14851;51.166;4.760;2024-01-11T09:39:57;-4.40;99.90
27384;DHT22;14851;51.166;4.760;2024-01-11T09:42:25;-4.40;99.90
27384;DHT22;14851;51.166;4.760;2024-01-11T09:44:52;-4.40;99.90
27384;DHT22;14851;51.166;4.760;2024-01-11T09:47:21;-4.30;99.90
27384;DHT22;14851;51.166;4.760;2024-01-11T09:49:53;-4.30;99.90
27384;DHT22;14851;51.166;4.760;2024-01-11T09:52:22;-4.30;99.90
27384;DHT22;14851;51.166;4.760;2024-01-11T09:54:53;-4.30;99.90
27384;DHT22;14851;51.166;4.760;2024-01-11T09:57:31;-4.30;99.90
27384;DHT22;14851;51.166;4.760;2024-01-11T10:00:04;-4.30;99.90
27384;DHT22;14851;51.166;4.760;2024-01-11T10:02:35;-4.20;99.90
27384;DHT22;14851;51.166;4.760;2024-01-11T10:05:04;-4.10;99.90
27384;DHT22;14851;51.166;4.760;2024-01-11T10:07:32;-4.10;99.90
27384;DHT22;14851;51.166;4.760;2024-01-11T10:09:59;-4.00;99.90
27384;DHT22;14851;51.166;4.760;2024-01-11T10:12:29;-3.90;99.90
27384;DHT22;14851;51.166;4.760;2024-01-11T10:14:56;-3.90;99.90
27384;DHT22;14851;51.166;4.760;2024-01-11T10:17:33;-3.80;99.90
27384;DHT22;14851;51.166;4.760;2024-01-11T10:20:00;-3.80;99.90
27384;DHT22;14851;51.166;4.760;2024-01-11T10:22:27;-3.70;99.90
27384;DHT22;14851;51.166;4.760;2024-01-11T10:25:13;-3.70;99.90
27384;DHT22;14851;51.166;4.760;2024-01-11T10:27:41;-3.70;99.90
27384;DHT22;14851;51.166;4.760;2024-01-11T10:30:15;-3.60;99.90
27384;DHT22;14851;51.166;4.760;2024-01-11T10:32:46;-3.60;99.90
27384;DHT22;14851;51.166;4.760;2024-01-11T10:35:12;-3.50;99.90
27384;DHT22;14851;51.166;4.760;2024-01-11T10:37:40;-3.50;99.90
27384;DHT22;14851;51.166;4.760;2024-01-11T10:40:10;-3.50;99.90
27384;DHT22;14851;51.166;4.760;2024-01-11T10:42:53;-3.40;99.90
27384;DHT22;14851;51.166;4.760;2024-01-11T10:45:20;-3.40;99.90
27384;DHT22;14851;51.166;4.760;2024-01-11T10:50:13;-3.30;99.90
27384;DHT22;14851;51.166;4.760;2024-01-11T10:52:45;-3.30;99.90
27384;DHT22;14851;51.166;4.760;2024-01-11T10:55:25;-3.20;99.90
27384;DHT22;14851;51.166;4.760;2024-01-11T10:57:53;-3.20;99.90
27384;DHT22;14851;51.166;4.760;2024-01-11T11:00:22;-3.20;99.90
27384;DHT22;14851;51.166;4.760;2024-01-11T11:02:52;-3.10;99.90
27384;DHT22;14851;51.166;4.760;2024-01-11T11:05:19;-3.10;99.90
27384;DHT22;14851;51.166;4.760;2024-01-11T11:07:49;-3.10;99.90
27384;DHT22;14851;51.166;4.760;2024-01-11T11:10:19;-3.00;99.90
27384;DHT22;14851;51.166;4.760;2024-01-11T11:12:54;-3.00;99.90
27384;DHT22;14851;51.166;4.760;2024-01-11T11:15:27;-3.00;99.90
27384;DHT22;14851;51.166;4.760;2024-01-11T11:17:57;-2.90;99.90
27384;DHT22;14851;51.166;4.760;2024-01-11T11:20:24;-2.90;99.90
27384;DHT22;14851;51.166;4.760;2024-01-11T11:23:12;-2.90;99.90
27384;DHT22;14851;51.166;4.760;2024-01-11T11:25:44;-2.90;99.90
27384;DHT22;14851;51.166;4.760;2024-01-11T11:28:15;-2.90;99.90
27384;DHT22;14851;51.166;4.760;2024-01-11T11:30:44;-2.80;99.90
27384;DHT22;14851;51.166;4.760;2024-01-11T11:33:26;-2.80;99.90
27384;DHT22;14851;51.166;4.760;2024-01-11T11:35:57;-2.70;99.90
27384;DHT22;14851;51.166;4.760;2024-01-11T11:38:27;-2.60;99.90
27384;DHT22;14851;51.166;4.760;2024-01-11T11:40:58;-2.60;99.90
27384;DHT22;14851;51.166;4.760;2024-01-11T11:43:26;-2.50;99.90
27384;DHT22;14851;51.166;4.760;2024-01-11T11:45:56;-2.50;99.90
27384;DHT22;14851;51.166;4.760;2024-01-11T11:53:40;-2.30;99.90
27384;DHT22;14851;51.166;4.760;2024-01-11T11:56:11;-2.30;99.90
27384;DHT22;14851;51.166;4.760;2024-01-11T11:58:43;-2.30;99.90
27384;DHT22;14851;51.166;4.760;2024-01-11T12:01:10;-2.30;99.90
27384;DHT22;14851;51.166;4.760;2024-01-11T12:03:38;-2.20;99.90
27384;DHT22;14851;51.166;4.760;2024-01-11T12:06:07;-2.10;99.90
27384;DHT22;14851;51.166;4.760;2024-01-11T12:08:35;-2.00;99.90
27384;DHT22;14851;51.166;4.760;2024-01-11T12:11:04;-2.00;99.90
27384;DHT22;14851;51.166;4.760;2024-01-11T12:13:32;-2.00;99.90
27384;DHT22;14851;51.166;4.760;2024-01-11T12:16:01;-1.90;99.90
27384;DHT22;14851;51.166;4.760;2024-01-11T12:18:32;-1.90;99.90
27384;DHT22;14851;51.166;4.760;2024-01-11T12:21:01;-1.80;99.90
27384;DHT22;14851;51.166;4.760;2024-01-11T12:23:30;-1.70;99.90
27384;DHT22;14851;51.166;4.760;2024-01-11T12:25:58;-1.60;99.90
27384;DHT22;14851;51.166;4.760;2024-01-11T12:28:27;-1.60;99.90
27384;DHT22;14851;51.166;4.760;2024-01-11T12:30:53;-1.50;99.90
27384;DHT22;14851;51.166;4.760;2024-01-11T12:33:19;-1.50;99.90
27384;DHT22;14851;51.166;4.760;2024-01-11T12:35:46;-1.50;99.90
27384;DHT22;14851;51.166;4.760;2024-01-11T12:38:13;-1.40;99.90
27384;DHT22;14851;51.166;4.760;2024-01-11T12:40:41;-1.40;99.90
27384;DHT22;14851;51.166;4.760;2024-01-11T12:43:08;-1.40;99.90
27384;DHT22;14851;51.166;4.760;2024-01-11T12:45:38;-1.40;99.90
27384;DHT22;14851;51.166;4.760;2024-01-11T12:48:09;-1.40;99.90
27384;DHT22;14851;51.166;4.760;2024-01-11T12:50:40;-1.20;99.90
27384;DHT22;14851;51.166;4.760;2024-01-11T12:53:11;-1.30;99.90
27384;DHT22;14851;51.166;4.760;2024-01-11T12:56:07;-1.30;99.90
27384;DHT22;14851;51.166;4.760;2024-01-11T12:58:47;-1.30;99.90
27384;DHT22;14851;51.166;4.760;2024-01-11T13:01:13;-1.20;99.90
27384;DHT22;14851;51.166;4.760;2024-01-11T13:03:44;-1.20;99.90
27384;DHT22;14851;51.166;4.760;2024-01-11T13:06:12;-1.00;99.90
27384;DHT22;14851;51.166;4.760;2024-01-11T13:08:39;-0.90;99.90
27384;DHT22;14851;51.166;4.760;2024-01-11T13:11:06;-0.90;99.90
27384;DHT22;14851;51.166;4.760;2024-01-11T13:13:35;-1.00;99.90
27384;DHT22;14851;51.166;4.760;2024-01-11T13:16:03;-0.90;99.90
27384;DHT22;14851;51.166;4.760;2024-01-11T13:18:34;-0.90;99.90
27384;DHT22;14851;51.166;4.760;2024-01-11T13:21:00;-0.80;99.90
27384;DHT22;14851;51.166;4.760;2024-01-11T13:23:28;-0.80;99.90
27384;DHT22;14851;51.166;4.760;2024-01-11T13:25:54;-0.80;99.90
27384;DHT22;14851;51.166;4.760;2024-01-11T13:28:21;-0.70;99.90
27384;DHT22;14851;51.166;4.760;2024-01-11T13:30:48;-0.80;99.90
27384;DHT22;14851;51.166;4.760;2024-01-11T13:33:17;-0.80;99.90
27384;DHT22;14851;51.166;4.760;2024-01-11T13:35:43;-0.80;99.90
27384;DHT22;14851;51.166;4.760;2024-01-11T13:38:10;-0.80;99.90
27384;DHT22;14851;51.166;4.760;2024-01-11T13:40:37;-0.80;99.90
27384;DHT22;14851;51.166;4.760;2024-01-11T13:43:08;-0.70;99.90
27384;DHT22;14851;51.166;4.760;2024-01-11T13:45:37;-0.70;99.90
27384;DHT22;14851;51.166;4.760;2024-01-11T13:48:05;-0.70;99.90
27384;DHT22;14851;51.166;4.760;2024-01-11T13:50:32;-0.70;99.90
27384;DHT22;14851;51.166;4.760;2024-01-11T13:52:58;-0.70;99.90
27384;DHT22;14851;51.166;4.760;2024-01-11T13:55:25;-0.70;99.90
27384;DHT22;14851;51.166;4.760;2024-01-11T13:57:51;-0.60;99.90
27384;DHT22;14851;51.166;4.760;2024-01-11T14:00:19;-0.50;99.90
27384;DHT22;14851;51.166;4.760;2024-01-11T14:02:47;-0.50;99.90
27384;DHT22;14851;51.166;4.760;2024-01-11T14:05:14;-0.50;99.90
27384;DHT22;14851;51.166;4.760;2024-01-11T14:07:46;-0.40;99.90
27384;DHT22;14851;51.166;4.760;2024-01-11T14:10:13;-0.40;99.90
27384;DHT22;14851;51.166;4.760;2024-01-11T14:12:40;-0.40;99.90
27384;DHT22;14851;51.166;4.760;2024-01-11T14:15:09;-0.40;99.90
27384;DHT22;14851;51.166;4.760;2024-01-11T14:17:39;-0.40;99.90
27384;DHT22;14851;51.166;4.760;2024-01-11T14:20:06;-0.40;99.90
27384;DHT22;14851;51.166;4.760;2024-01-11T14:22:39;-0.40;99.90
27384;DHT22;14851;51.166;4.760;2024-01-11T14:25:07;-0.30;99.90
27384;DHT22;14851;51.166;4.760;2024-01-11T14:27:36;-0.40;99.90
27384;DHT22;14851;51.166;4.760;2024-01-11T14:30:02;-0.40;99.90
27384;DHT22;14851;51.166;4.760;2024-01-11T14:32:32;-0.40;99.90
27384;DHT22;14851;51.166;4.760;2024-01-11T14:34:58;-0.30;99.90
27384;DHT22;14851;51.166;4.760;2024-01-11T14:37:29;-0.30;99.90
27384;DHT22;14851;51.166;4.760;2024-01-11T14:39:58;-0.30;99.90
27384;DHT22;14851;51.166;4.760;2024-01-11T14:42:26;-0.20;99.90
27384;DHT22;14851;51.166;4.760;2024-01-11T14:44:57;-0.20;99.90
27384;DHT22;14851;51.166;4.760;2024-01-11T14:47:26;-0.20;99.90
27384;DHT22;14851;51.166;4.760;2024-01-11T14:49:54;-0.20;99.90
27384;DHT22;14851;51.166;4.760;2024-01-11T14:52:20;-0.30;99.90
27384;DHT22;14851;51.166;4.760;2024-01-11T14:54:46;-0.30;99.90
27384;DHT22;14851;51.166;4.760;2024-01-11T14:57:16;-0.30;99.90
27384;DHT22;14851;51.166;4.760;2024-01-11T14:59:45;-0.30;99.90
27384;DHT22;14851;51.166;4.760;2024-01-11T15:02:12;-0.30;99.90
27384;DHT22;14851;51.166;4.760;2024-01-11T15:04:38;-0.40;99.90
27384;DHT22;14851;51.166;4.760;2024-01-11T15:07:07;-0.30;99.90
27384;DHT22;14851;51.166;4.760;2024-01-11T15:09:37;-0.30;99.90
27384;DHT22;14851;51.166;4.760;2024-01-11T15:12:09;-0.30;99.90
27384;DHT22;14851;51.166;4.760;2024-01-11T15:14:39;-0.30;99.90
27384;DHT22;14851;51.166;4.760;2024-01-11T15:17:05;-0.30;99.90
27384;DHT22;14851;51.166;4.760;2024-01-11T15:19:31;-0.30;99.90
27384;DHT22;14851;51.166;4.760;2024-01-11T15:21:58;-0.30;99.90
27384;DHT22;14851;51.166;4.760;2024-01-11T15:24:24;-0.30;99.90
27384;DHT22;14851;51.166;4.760;2024-01-11T15:26:50;-0.30;99.90
27384;DHT22;14851;51.166;4.760;2024-01-11T15:29:17;-0.30;99.90
27384;DHT22;14851;51.166;4.760;2024-01-11T15:31:43;-0.20;99.90
27384;DHT22;14851;51.166;4.760;2024-01-11T15:34:12;-0.20;99.90
27384;DHT22;14851;51.166;4.760;2024-01-11T15:36:41;-0.20;99.90
27384;DHT22;14851;51.166;4.760;2024-01-11T15:39:08;-0.20;99.90
27384;DHT22;14851;51.166;4.760;2024-01-11T15:41:34;-0.20;99.90
27384;DHT22;14851;51.166;4.760;2024-01-11T15:44:01;-0.20;99.90